createdAt,value
2022-11-27T00:00:39.273Z,962.90
2022-11-27T00:01:39.260Z,962.83
2022-11-27T00:02:40.748Z,962.88
2022-11-27T00:03:39.367Z,962.79
2022-11-27T00:04:39.229Z,962.82
2022-11-27T00:05:39.202Z,962.81
2022-11-27T00:06:39.217Z,962.77
2022-11-27T00:07:39.282Z,962.76
2022-11-27T00:08:39.162Z,962.78
2022-11-27T00:09:39.305Z,962.73
2022-11-27T00:10:39.189Z,962.76
2022-11-27T00:11:39.155Z,962.77
2022-11-27T00:12:39.117Z,962.68
2022-11-27T00:13:39.124Z,962.72
2022-11-27T00:14:39.113Z,962.72
2022-11-27T00:15:39.151Z,962.71
2022-11-27T00:16:39.091Z,962.73
2022-11-27T00:17:39.070Z,962.67
2022-11-27T00:18:39.056Z,962.67
2022-11-27T00:19:39.431Z,962.67
2022-11-27T00:20:39.029Z,962.61
2022-11-27T00:21:39.045Z,962.66
2022-11-27T00:22:39.040Z,962.64
2022-11-27T00:23:39.052Z,962.65
2022-11-27T00:24:39.254Z,962.63
2022-11-27T00:25:38.988Z,962.66
2022-11-27T00:26:38.990Z,962.64
2022-11-27T00:27:38.991Z,962.62
2022-11-27T00:28:38.934Z,962.62
2022-11-27T00:29:38.933Z,962.59
2022-11-27T00:30:38.920Z,962.62
2022-11-27T00:31:38.998Z,962.58
2022-11-27T00:32:38.917Z,962.60
2022-11-27T00:33:38.892Z,962.59
2022-11-27T00:34:39.161Z,962.57
2022-11-27T00:35:38.906Z,962.49
2022-11-27T00:36:39.254Z,962.58
2022-11-27T00:37:38.856Z,962.58
2022-11-27T00:38:39.272Z,962.56
2022-11-27T00:39:38.854Z,962.58
2022-11-27T00:40:38.810Z,962.59
2022-11-27T00:41:38.805Z,962.62
2022-11-27T00:42:38.784Z,962.60
2022-11-27T00:43:44.161Z,962.57
2022-11-27T00:44:40.187Z,962.64
2022-11-27T00:45:38.747Z,962.65
2022-11-27T00:46:38.826Z,962.68
2022-11-27T00:47:38.807Z,962.66
2022-11-27T00:48:38.750Z,962.68
2022-11-27T00:49:38.725Z,962.71
2022-11-27T00:50:38.689Z,962.66
2022-11-27T00:51:38.689Z,962.70
2022-11-27T00:52:40.791Z,962.74
2022-11-27T00:53:38.664Z,962.73
2022-11-27T00:54:39.092Z,962.74
2022-11-27T00:55:38.654Z,962.76
2022-11-27T00:56:38.641Z,962.71
2022-11-27T00:57:38.644Z,962.70
2022-11-27T00:58:38.600Z,962.68
2022-11-27T00:59:38.596Z,962.62
2022-11-27T01:00:38.597Z,962.63
2022-11-27T01:01:38.671Z,962.60
2022-11-27T01:02:38.731Z,962.53
2022-11-27T01:03:38.562Z,962.50
2022-11-27T01:04:38.907Z,962.53
2022-11-27T01:05:38.541Z,962.51
2022-11-27T01:06:38.512Z,962.48
2022-11-27T01:07:38.567Z,962.46
2022-11-27T01:08:38.503Z,962.44
2022-11-27T01:09:38.507Z,962.45
2022-11-27T01:10:38.491Z,962.42
2022-11-27T01:11:38.522Z,962.40
2022-11-27T01:12:38.441Z,962.36
2022-11-27T01:13:38.487Z,962.38
2022-11-27T01:14:38.889Z,962.39
2022-11-27T01:15:38.459Z,962.35
2022-11-27T01:16:42.598Z,962.35
2022-11-27T01:17:38.387Z,962.37
2022-11-27T01:18:38.373Z,962.40
2022-11-27T01:19:38.379Z,962.38
2022-11-27T01:20:38.371Z,962.33
2022-11-27T01:21:38.346Z,962.36
2022-11-27T01:22:38.340Z,962.34
2022-11-27T01:23:38.344Z,962.30
2022-11-27T01:24:38.737Z,962.31
2022-11-27T01:25:38.341Z,962.31
2022-11-27T01:26:38.312Z,962.31
2022-11-27T01:27:38.277Z,962.29
2022-11-27T01:28:38.262Z,962.23
2022-11-27T01:29:38.257Z,962.27
2022-11-27T01:30:38.239Z,962.16
2022-11-27T01:31:38.310Z,962.18
2022-11-27T01:32:38.214Z,962.09
2022-11-27T01:33:38.215Z,962.01
2022-11-27T01:34:38.743Z,962.05
2022-11-27T01:35:38.186Z,962.03
2022-11-27T01:36:38.210Z,961.99
2022-11-27T01:37:38.177Z,962.02
2022-11-27T01:38:38.153Z,962.01
2022-11-27T01:39:38.145Z,962.02
2022-11-27T01:40:38.128Z,962.00
2022-11-27T01:41:38.137Z,961.95
2022-11-27T01:42:38.122Z,961.90
2022-11-27T01:43:38.114Z,961.90
2022-11-27T01:44:38.495Z,961.85
2022-11-27T01:45:38.074Z,961.88
2022-11-27T01:46:38.186Z,961.91
2022-11-27T01:47:38.054Z,961.84
2022-11-27T01:48:38.037Z,961.85
2022-11-27T01:49:38.046Z,961.83
2022-11-27T01:50:38.015Z,961.78
2022-11-27T01:51:38.028Z,961.75
2022-11-27T01:52:37.996Z,961.74
2022-11-27T01:53:37.986Z,961.77
2022-11-27T01:54:38.158Z,961.75
2022-11-27T01:55:37.977Z,961.75
2022-11-27T01:56:37.970Z,961.77
2022-11-27T01:57:37.938Z,961.79
2022-11-27T01:58:37.944Z,961.74
2022-11-27T01:59:37.916Z,961.74
2022-11-27T02:00:37.904Z,961.72
2022-11-27T02:01:37.962Z,961.68
2022-11-27T02:02:37.925Z,961.64
2022-11-27T02:03:37.877Z,961.59
2022-11-27T02:04:38.107Z,961.59
2022-11-27T02:05:37.851Z,961.55
2022-11-27T02:06:37.835Z,961.56
2022-11-27T02:07:37.916Z,961.55
2022-11-27T02:08:37.814Z,961.53
2022-11-27T02:09:37.805Z,961.54
2022-11-27T02:10:37.791Z,961.53
2022-11-27T02:11:37.785Z,961.60
2022-11-27T02:12:37.804Z,961.59
2022-11-27T02:13:37.775Z,961.63
2022-11-27T02:14:43.743Z,961.65
2022-11-27T02:15:38.785Z,961.62
2022-11-27T02:16:45.544Z,961.63
2022-11-27T02:17:37.747Z,961.61
2022-11-27T02:18:37.903Z,961.61
2022-11-27T02:19:47.596Z,961.66
2022-11-27T02:20:45.740Z,961.68
2022-11-27T02:21:37.703Z,961.73
2022-11-27T02:22:37.668Z,961.74
2022-11-27T02:23:37.644Z,961.71
2022-11-27T02:24:38.225Z,961.69
2022-11-27T02:25:37.637Z,961.68
2022-11-27T02:26:37.636Z,961.70
2022-11-27T02:27:37.612Z,961.69
2022-11-27T02:28:40.516Z,961.67
2022-11-27T02:29:37.580Z,961.70
2022-11-27T02:30:37.602Z,961.72
2022-11-27T02:31:37.631Z,961.70
2022-11-27T02:32:37.568Z,961.71
2022-11-27T02:33:37.532Z,961.70
2022-11-27T02:34:37.706Z,961.65
2022-11-27T02:35:37.510Z,961.67
2022-11-27T02:36:37.514Z,961.65
2022-11-27T02:37:37.506Z,961.67
2022-11-27T02:38:37.506Z,961.67
2022-11-27T02:39:37.473Z,961.69
2022-11-27T02:40:37.461Z,961.69
2022-11-27T02:41:37.443Z,961.71
2022-11-27T02:42:37.549Z,961.67
2022-11-27T02:43:37.444Z,961.65
2022-11-27T02:44:37.492Z,961.62
2022-11-27T02:45:37.397Z,961.66
2022-11-27T02:46:37.463Z,961.69
2022-11-27T02:47:37.382Z,961.65
2022-11-27T02:48:37.389Z,961.64
2022-11-27T02:49:37.376Z,961.64
2022-11-27T02:50:37.375Z,961.67
2022-11-27T02:51:37.335Z,961.69
2022-11-27T02:52:37.348Z,961.69
2022-11-27T02:53:37.328Z,961.69
2022-11-27T02:54:37.377Z,961.68
2022-11-27T02:55:37.355Z,961.67
2022-11-27T02:56:37.282Z,961.65
2022-11-27T02:57:37.283Z,961.68
2022-11-27T02:58:37.406Z,961.68
2022-11-27T02:59:37.240Z,961.67
2022-11-27T03:00:37.249Z,961.62
2022-11-27T03:01:37.285Z,961.66
2022-11-27T03:02:37.287Z,961.63
2022-11-27T03:03:37.197Z,961.62
2022-11-27T03:04:37.267Z,961.59
2022-11-27T03:05:37.196Z,961.61
2022-11-27T03:06:37.188Z,961.58
2022-11-27T03:07:37.231Z,961.56
2022-11-27T03:08:37.144Z,961.52
2022-11-27T03:09:37.133Z,961.57
2022-11-27T03:10:37.121Z,961.57
2022-11-27T03:11:37.107Z,961.53
2022-11-27T03:12:37.135Z,961.53
2022-11-27T03:13:37.091Z,961.55
2022-11-27T03:14:37.442Z,961.53
2022-11-27T03:15:37.128Z,961.54
2022-11-27T03:16:37.059Z,961.54
2022-11-27T03:17:37.067Z,961.52
2022-11-27T03:18:37.066Z,961.45
2022-11-27T03:19:37.022Z,961.45
2022-11-27T03:20:37.013Z,961.45
2022-11-27T03:21:36.994Z,961.45
2022-11-27T03:22:36.990Z,961.44
2022-11-27T03:23:37.002Z,961.44
2022-11-27T03:24:37.017Z,961.41
2022-11-27T03:25:36.947Z,961.43
2022-11-27T03:26:36.946Z,961.39
2022-11-27T03:27:36.939Z,961.39
2022-11-27T03:28:36.922Z,961.40
2022-11-27T03:29:36.942Z,961.42
2022-11-27T03:30:37.012Z,961.39
2022-11-27T03:31:36.968Z,961.37
2022-11-27T03:32:36.884Z,961.36
2022-11-27T03:33:36.861Z,961.37
2022-11-27T03:34:36.879Z,961.39
2022-11-27T03:35:36.835Z,961.34
2022-11-27T03:36:36.843Z,961.34
2022-11-27T03:37:36.817Z,961.32
2022-11-27T03:38:36.808Z,961.30
2022-11-27T03:39:36.815Z,961.27
2022-11-27T03:40:36.790Z,961.27
2022-11-27T03:41:36.769Z,961.31
2022-11-27T03:42:36.775Z,961.30
2022-11-27T03:43:36.770Z,961.29
2022-11-27T03:44:36.907Z,961.33
2022-11-27T03:45:36.747Z,961.32
2022-11-27T03:46:36.913Z,961.32
2022-11-27T03:47:36.778Z,961.35
2022-11-27T03:48:36.712Z,961.31
2022-11-27T03:49:36.721Z,961.32
2022-11-27T03:50:36.688Z,961.29
2022-11-27T03:51:36.660Z,961.32
2022-11-27T03:52:36.662Z,961.34
2022-11-27T03:53:36.641Z,961.35
2022-11-27T03:54:36.675Z,961.33
2022-11-27T03:55:36.613Z,961.41
2022-11-27T03:56:36.609Z,961.36
2022-11-27T03:57:36.593Z,961.35
2022-11-27T03:58:36.586Z,961.30
2022-11-27T03:59:36.625Z,961.29
2022-11-27T04:00:36.586Z,961.34
2022-11-27T04:01:36.625Z,961.36
2022-11-27T04:02:36.656Z,961.31
2022-11-27T04:03:36.603Z,961.34
2022-11-27T04:04:36.543Z,961.30
2022-11-27T04:05:36.901Z,961.29
2022-11-27T04:06:36.500Z,961.28
2022-11-27T04:07:36.510Z,961.28
2022-11-27T04:08:36.470Z,961.29
2022-11-27T04:09:36.484Z,961.30
2022-11-27T04:10:36.453Z,961.25
2022-11-27T04:11:36.481Z,961.21
2022-11-27T04:12:36.431Z,961.25
2022-11-27T04:13:36.418Z,961.25
2022-11-27T04:14:36.429Z,961.28
2022-11-27T04:15:36.424Z,961.29
2022-11-27T04:16:36.424Z,961.25
2022-11-27T04:17:36.385Z,961.26
2022-11-27T04:18:42.260Z,961.21
2022-11-27T04:19:37.457Z,961.27
2022-11-27T04:20:36.361Z,961.21
2022-11-27T04:21:36.325Z,961.23
2022-11-27T04:22:36.339Z,961.24
2022-11-27T04:23:36.315Z,961.22
2022-11-27T04:24:36.317Z,961.21
2022-11-27T04:25:36.281Z,961.24
2022-11-27T04:26:36.274Z,961.27
2022-11-27T04:27:36.278Z,961.30
2022-11-27T04:28:36.299Z,961.26
2022-11-27T04:29:36.244Z,961.35
2022-11-27T04:30:36.233Z,961.28
2022-11-27T04:31:36.315Z,961.23
2022-11-27T04:32:36.207Z,961.22
2022-11-27T04:33:36.223Z,961.21
2022-11-27T04:34:36.181Z,961.21
2022-11-27T04:35:36.282Z,961.18
2022-11-27T04:36:39.399Z,961.23
2022-11-27T04:37:36.143Z,961.29
2022-11-27T04:38:36.140Z,961.29
2022-11-27T04:39:36.149Z,961.28
2022-11-27T04:40:36.118Z,961.22
2022-11-27T04:41:36.099Z,961.27
2022-11-27T04:42:36.107Z,961.27
2022-11-27T04:43:36.085Z,961.26
2022-11-27T04:44:36.106Z,961.31
2022-11-27T04:45:36.059Z,961.25
2022-11-27T04:46:36.149Z,961.20
2022-11-27T04:47:36.041Z,961.20
2022-11-27T04:48:36.034Z,961.22
2022-11-27T04:49:36.027Z,961.23
2022-11-27T04:50:36.024Z,961.20
2022-11-27T04:51:36.101Z,961.17
2022-11-27T04:52:35.982Z,961.18
2022-11-27T04:53:35.967Z,961.14
2022-11-27T04:54:35.965Z,961.17
2022-11-27T04:55:35.944Z,961.20
2022-11-27T04:56:35.954Z,961.23
2022-11-27T04:57:35.919Z,961.22
2022-11-27T04:58:35.913Z,961.17
2022-11-27T04:59:35.900Z,961.15
2022-11-27T05:00:35.950Z,961.13
2022-11-27T05:01:35.919Z,961.10
2022-11-27T05:02:35.953Z,961.18
2022-11-27T05:03:35.868Z,961.10
2022-11-27T05:04:35.871Z,961.12
2022-11-27T05:05:35.849Z,961.07
2022-11-27T05:06:35.863Z,961.10
2022-11-27T05:07:36.051Z,961.07
2022-11-27T05:08:35.814Z,961.05
2022-11-27T05:09:35.792Z,961.06
2022-11-27T05:10:35.784Z,961.09
2022-11-27T05:11:35.788Z,961.11
2022-11-27T05:12:35.766Z,961.06
2022-11-27T05:13:35.741Z,961.09
2022-11-27T05:14:35.763Z,961.09
2022-11-27T05:15:35.718Z,961.07
2022-11-27T05:16:35.778Z,961.13
2022-11-27T05:17:35.697Z,961.15
2022-11-27T05:18:35.715Z,961.07
2022-11-27T05:19:35.673Z,961.11
2022-11-27T05:20:35.668Z,961.08
2022-11-27T05:21:35.672Z,961.10
2022-11-27T05:22:35.646Z,961.04
2022-11-27T05:23:35.744Z,961.09
2022-11-27T05:24:35.622Z,961.08
2022-11-27T05:25:35.611Z,961.05
2022-11-27T05:26:35.620Z,961.09
2022-11-27T05:27:35.584Z,961.06
2022-11-27T05:28:35.580Z,961.08
2022-11-27T05:29:35.572Z,961.09
2022-11-27T05:30:35.579Z,961.12
2022-11-27T05:31:35.604Z,961.15
2022-11-27T05:32:35.531Z,961.12
2022-11-27T05:33:35.539Z,961.11
2022-11-27T05:34:35.535Z,961.13
2022-11-27T05:35:35.513Z,961.16
2022-11-27T05:36:35.490Z,961.15
2022-11-27T05:37:35.474Z,961.20
2022-11-27T05:38:35.490Z,961.23
2022-11-27T05:39:35.579Z,961.18
2022-11-27T05:40:35.465Z,961.21
2022-11-27T05:41:35.443Z,961.18
2022-11-27T05:42:35.508Z,961.18
2022-11-27T05:43:35.424Z,961.20
2022-11-27T05:44:35.406Z,961.13
2022-11-27T05:45:35.401Z,961.15
2022-11-27T05:46:37.155Z,961.10
2022-11-27T05:47:35.372Z,961.12
2022-11-27T05:48:35.374Z,961.13
2022-11-27T05:49:35.340Z,961.04
2022-11-27T05:50:35.331Z,961.07
2022-11-27T05:51:35.333Z,961.04
2022-11-27T05:52:35.395Z,961.00
2022-11-27T05:53:35.325Z,960.99
2022-11-27T05:54:35.287Z,960.98
2022-11-27T05:55:35.405Z,960.99
2022-11-27T05:56:35.266Z,960.96
2022-11-27T05:57:35.265Z,960.96
2022-11-27T05:58:35.245Z,960.98
2022-11-27T05:59:35.237Z,961.03
2022-11-27T06:00:35.223Z,960.96
2022-11-27T06:01:35.287Z,960.97
2022-11-27T06:02:35.332Z,961.00
2022-11-27T06:03:35.237Z,960.97
2022-11-27T06:04:35.194Z,960.97
2022-11-27T06:05:35.178Z,960.95
2022-11-27T06:06:35.175Z,960.91
2022-11-27T06:07:35.208Z,960.95
2022-11-27T06:08:35.128Z,960.92
2022-11-27T06:09:35.158Z,960.87
2022-11-27T06:10:35.151Z,960.81
2022-11-27T06:11:35.222Z,960.77
2022-11-27T06:12:35.087Z,960.73
2022-11-27T06:13:35.075Z,960.71
2022-11-27T06:14:35.071Z,960.74
2022-11-27T06:15:35.067Z,960.73
2022-11-27T06:16:35.122Z,960.75
2022-11-27T06:17:35.042Z,960.74
2022-11-27T06:18:35.037Z,960.77
2022-11-27T06:19:35.010Z,960.75
2022-11-27T06:20:38.444Z,960.83
2022-11-27T06:21:36.003Z,960.80
2022-11-27T06:22:34.974Z,960.81
2022-11-27T06:23:34.970Z,960.79
2022-11-27T06:24:34.953Z,960.82
2022-11-27T06:25:34.965Z,960.85
2022-11-27T06:26:34.953Z,960.79
2022-11-27T06:27:35.045Z,960.82
2022-11-27T06:28:34.909Z,960.81
2022-11-27T06:29:34.898Z,960.77
2022-11-27T06:30:34.884Z,960.77
2022-11-27T06:31:34.916Z,960.78
2022-11-27T06:32:34.910Z,960.71
2022-11-27T06:33:34.843Z,960.70
2022-11-27T06:34:34.834Z,960.73
2022-11-27T06:35:34.838Z,960.70
2022-11-27T06:36:34.879Z,960.65
2022-11-27T06:37:34.806Z,960.69
2022-11-27T06:38:34.789Z,960.69
2022-11-27T06:39:34.788Z,960.70
2022-11-27T06:40:34.771Z,960.69
2022-11-27T06:41:34.801Z,960.64
2022-11-27T06:42:34.747Z,960.62
2022-11-27T06:43:34.879Z,960.63
2022-11-27T06:44:34.741Z,960.67
2022-11-27T06:45:34.732Z,960.69
2022-11-27T06:46:34.698Z,960.67
2022-11-27T06:47:34.724Z,960.74
2022-11-27T06:48:34.686Z,960.72
2022-11-27T06:49:34.683Z,960.75
2022-11-27T06:50:34.654Z,960.69
2022-11-27T06:51:34.649Z,960.70
2022-11-27T06:52:38.820Z,960.72
2022-11-27T06:53:35.649Z,960.70
2022-11-27T06:54:34.634Z,960.72
2022-11-27T06:55:34.605Z,960.69
2022-11-27T06:56:34.588Z,960.69
2022-11-27T06:57:34.603Z,960.69
2022-11-27T06:58:34.614Z,960.70
2022-11-27T06:59:34.690Z,960.72
2022-11-27T07:00:34.604Z,960.72
2022-11-27T07:01:34.647Z,960.72
2022-11-27T07:02:34.554Z,960.70
2022-11-27T07:03:34.533Z,960.69
2022-11-27T07:04:34.511Z,960.68
2022-11-27T07:05:34.499Z,960.73
2022-11-27T07:06:34.478Z,960.64
2022-11-27T07:07:35.451Z,960.66
2022-11-27T07:08:34.481Z,960.65
2022-11-27T07:09:34.448Z,960.66
2022-11-27T07:10:34.446Z,960.61
2022-11-27T07:11:34.426Z,960.60
2022-11-27T07:12:34.600Z,960.57
2022-11-27T07:13:34.708Z,960.56
2022-11-27T07:14:34.387Z,960.50
2022-11-27T07:15:34.495Z,960.49
2022-11-27T07:16:34.439Z,960.53
2022-11-27T07:17:34.360Z,960.52
2022-11-27T07:18:34.341Z,960.53
2022-11-27T07:19:34.393Z,960.52
2022-11-27T07:20:34.323Z,960.46
2022-11-27T07:21:34.320Z,960.43
2022-11-27T07:22:34.307Z,960.41
2022-11-27T07:23:34.304Z,960.43
2022-11-27T07:24:34.295Z,960.44
2022-11-27T07:25:34.267Z,960.45
2022-11-27T07:26:34.257Z,960.47
2022-11-27T07:27:34.246Z,960.47
2022-11-27T07:28:34.262Z,960.45
2022-11-27T07:29:34.232Z,960.52
2022-11-27T07:30:34.211Z,960.51
2022-11-27T07:31:34.428Z,960.50
2022-11-27T07:32:34.202Z,960.45
2022-11-27T07:33:34.189Z,960.47
2022-11-27T07:34:34.194Z,960.44
2022-11-27T07:35:34.159Z,960.47
2022-11-27T07:36:34.139Z,960.47
2022-11-27T07:37:34.133Z,960.40
2022-11-27T07:38:34.120Z,960.42
2022-11-27T07:40:01.014Z,960.38
2022-11-27T07:40:35.106Z,960.36
2022-11-27T07:41:34.468Z,960.33
2022-11-27T07:42:38.769Z,960.33
2022-11-27T07:43:35.068Z,960.31
2022-11-27T07:44:34.055Z,960.37
2022-11-27T07:45:34.133Z,960.36
2022-11-27T07:46:34.063Z,960.29
2022-11-27T07:47:34.134Z,960.31
2022-11-27T07:48:34.010Z,960.25
2022-11-27T07:49:34.002Z,960.29
2022-11-27T07:50:33.988Z,960.23
2022-11-27T07:51:33.999Z,960.23
2022-11-27T07:52:39.499Z,960.23
2022-11-27T07:53:34.953Z,960.24
2022-11-27T07:54:33.942Z,960.17
2022-11-27T07:55:33.934Z,960.19
2022-11-27T07:56:33.938Z,960.20
2022-11-27T07:57:33.919Z,960.17
2022-11-27T07:58:33.922Z,960.15
2022-11-27T07:59:33.891Z,960.15
2022-11-27T08:00:33.874Z,960.11
2022-11-27T08:01:33.948Z,960.09
2022-11-27T08:02:33.852Z,960.11
2022-11-27T08:03:33.982Z,960.10
2022-11-27T08:04:33.888Z,960.10
2022-11-27T08:05:33.819Z,960.10
2022-11-27T08:06:33.807Z,960.11
2022-11-27T08:07:33.824Z,960.08
2022-11-27T08:08:33.821Z,960.10
2022-11-27T08:09:33.837Z,960.14
2022-11-27T08:10:33.782Z,960.11
2022-11-27T08:11:33.756Z,960.10
2022-11-27T08:12:33.741Z,960.12
2022-11-27T08:13:33.775Z,960.06
2022-11-27T08:14:33.743Z,960.02
2022-11-27T08:15:33.709Z,959.99
2022-11-27T08:16:33.834Z,959.97
2022-11-27T08:17:33.689Z,959.95
2022-11-27T08:18:42.476Z,960.00
2022-11-27T08:19:33.679Z,959.95
2022-11-27T08:20:41.348Z,959.95
2022-11-27T08:21:33.679Z,959.96
2022-11-27T08:22:33.632Z,959.92
2022-11-27T08:23:33.622Z,959.94
2022-11-27T08:24:40.994Z,959.97
2022-11-27T08:25:33.621Z,959.89
2022-11-27T08:26:33.614Z,959.88
2022-11-27T08:27:33.612Z,959.90
2022-11-27T08:28:33.562Z,959.88
2022-11-27T08:29:34.132Z,959.92
2022-11-27T08:30:33.550Z,959.91
2022-11-27T08:31:33.667Z,959.93
2022-11-27T08:32:33.521Z,959.93
2022-11-27T08:33:33.507Z,959.91
2022-11-27T08:34:33.608Z,959.93
2022-11-27T08:35:33.498Z,959.92
2022-11-27T08:36:33.508Z,959.90
2022-11-27T08:37:33.494Z,959.88
2022-11-27T08:38:33.445Z,959.91
2022-11-27T08:39:33.466Z,959.92
2022-11-27T08:40:33.425Z,959.91
2022-11-27T08:41:33.429Z,959.95
2022-11-27T08:42:33.418Z,959.94
2022-11-27T08:43:33.395Z,959.97
2022-11-27T08:44:33.415Z,959.95
2022-11-27T08:45:33.383Z,960.00
2022-11-27T08:46:33.357Z,959.99
2022-11-27T08:47:33.360Z,960.00
2022-11-27T08:48:33.343Z,960.00
2022-11-27T08:49:33.390Z,960.00
2022-11-27T08:50:33.423Z,959.96
2022-11-27T08:51:33.309Z,959.91
2022-11-27T08:52:33.914Z,959.91
2022-11-27T08:53:33.295Z,959.92
2022-11-27T08:54:33.296Z,959.89
2022-11-27T08:55:33.260Z,959.90
2022-11-27T08:56:33.245Z,959.90
2022-11-27T08:57:33.265Z,959.89
2022-11-27T08:58:33.223Z,959.87
2022-11-27T08:59:33.235Z,959.90
2022-11-27T09:00:33.219Z,959.88
2022-11-27T09:01:33.227Z,959.93
2022-11-27T09:02:33.207Z,959.92
2022-11-27T09:03:33.229Z,959.92
2022-11-27T09:04:33.280Z,959.94
2022-11-27T09:05:33.159Z,959.94
2022-11-27T09:06:33.273Z,959.96
2022-11-27T09:07:33.191Z,959.93
2022-11-27T09:08:33.138Z,959.91
2022-11-27T09:09:33.103Z,959.93
2022-11-27T09:10:33.086Z,959.89
2022-11-27T09:11:33.090Z,959.92
2022-11-27T09:12:33.106Z,959.95
2022-11-27T09:13:33.059Z,959.87
2022-11-27T09:14:33.187Z,959.90
2022-11-27T09:15:33.081Z,959.87
2022-11-27T09:16:33.204Z,959.85
2022-11-27T09:17:33.029Z,959.89
2022-11-27T09:18:32.998Z,959.90
2022-11-27T09:19:33.028Z,959.81
2022-11-27T09:20:33.001Z,959.81
2022-11-27T09:21:32.981Z,959.79
2022-11-27T09:22:32.955Z,959.78
2022-11-27T09:23:33.078Z,959.71
2022-11-27T09:25:50.080Z,959.67
2022-11-27T09:26:49.908Z,959.68
2022-11-27T09:27:49.865Z,959.67
2022-11-27T09:28:49.890Z,959.65
2022-11-27T09:29:49.843Z,959.67
2022-11-27T09:30:49.837Z,959.61
2022-11-27T09:31:50.000Z,959.59
2022-11-27T09:32:49.818Z,959.63
2022-11-27T09:33:49.799Z,959.60
2022-11-27T09:34:49.818Z,959.55
2022-11-27T09:35:49.801Z,959.59
2022-11-27T09:36:49.779Z,959.55
2022-11-27T09:37:49.754Z,959.51
2022-11-27T09:38:49.894Z,959.49
2022-11-27T09:39:49.755Z,959.50
2022-11-27T09:40:49.723Z,959.49
2022-11-27T09:41:49.725Z,959.50
2022-11-27T09:42:49.735Z,959.49
2022-11-27T09:43:49.687Z,959.45
2022-11-27T09:44:49.679Z,959.42
2022-11-27T09:45:49.750Z,959.43
2022-11-27T09:46:49.662Z,959.40
2022-11-27T09:47:49.644Z,959.37
2022-11-27T09:48:49.640Z,959.33
2022-11-27T09:49:49.649Z,959.34
2022-11-27T09:50:49.612Z,959.35
2022-11-27T09:51:49.600Z,959.29
2022-11-27T09:52:49.593Z,959.29
2022-11-27T09:53:49.606Z,959.26
2022-11-27T09:54:52.584Z,959.30
2022-11-27T09:55:49.590Z,959.29
2022-11-27T09:56:49.552Z,959.27
2022-11-27T09:57:49.533Z,959.28
2022-11-27T09:58:49.529Z,959.28
2022-11-27T09:59:49.508Z,959.32
2022-11-27T10:00:49.576Z,959.35
2022-11-27T10:01:51.314Z,959.29
2022-11-27T10:02:50.298Z,959.31
2022-11-27T10:03:49.545Z,959.35
2022-11-27T10:05:12.991Z,959.30
2022-11-27T10:05:50.464Z,959.32
2022-11-27T10:06:49.454Z,959.31
2022-11-27T10:07:49.479Z,959.32
2022-11-27T10:08:49.430Z,959.30
2022-11-27T10:09:49.408Z,959.29
2022-11-27T10:10:49.499Z,959.32
2022-11-27T10:11:49.374Z,959.22
2022-11-27T10:12:50.047Z,959.23
2022-11-27T10:13:49.352Z,959.22
2022-11-27T10:14:49.391Z,959.21
2022-11-27T10:15:49.331Z,959.20
2022-11-27T10:16:49.425Z,959.12
2022-11-27T10:17:49.315Z,959.12
2022-11-27T10:18:49.306Z,959.13
2022-11-27T10:19:49.313Z,959.11
2022-11-27T10:20:57.003Z,959.09
2022-11-27T10:21:49.270Z,959.14
2022-11-27T10:22:49.255Z,959.12
2022-11-27T10:23:49.282Z,959.11
2022-11-27T10:24:49.272Z,959.12
2022-11-27T10:25:49.225Z,959.11
2022-11-27T10:26:49.355Z,959.12
2022-11-27T10:27:49.237Z,959.12
2022-11-27T10:28:49.194Z,959.14
2022-11-27T10:29:50.472Z,959.13
2022-11-27T10:30:49.196Z,959.05
2022-11-27T10:31:49.234Z,959.12
2022-11-27T10:32:56.757Z,959.14
2022-11-27T10:33:50.126Z,959.12
2022-11-27T10:34:49.161Z,959.06
2022-11-27T10:35:49.104Z,959.02
2022-11-27T10:36:49.106Z,958.98
2022-11-27T10:37:49.117Z,958.97
2022-11-27T10:38:49.168Z,958.95
2022-11-27T10:39:49.106Z,958.99
2022-11-27T10:40:49.071Z,959.00
2022-11-27T10:41:50.142Z,958.92
2022-11-27T10:42:49.906Z,958.95
2022-11-27T10:43:49.049Z,958.94
2022-11-27T10:44:49.012Z,958.87
2022-11-27T10:45:49.104Z,958.91
2022-11-27T10:46:49.037Z,958.95
2022-11-27T10:47:48.974Z,958.97
2022-11-27T10:48:48.980Z,958.95
2022-11-27T10:49:49.615Z,958.97
2022-11-27T10:50:48.945Z,958.97
2022-11-27T10:51:48.930Z,958.95
2022-11-27T10:52:51.143Z,958.92
2022-11-27T10:53:48.937Z,958.87
2022-11-27T10:54:48.899Z,959.06
2022-11-27T10:55:48.885Z,958.91
2022-11-27T10:56:48.931Z,958.98
2022-11-27T10:57:48.891Z,959.00
2022-11-27T10:58:48.987Z,959.04
2022-11-27T10:59:48.842Z,959.08
2022-11-27T11:00:48.952Z,959.10
2022-11-27T11:01:48.875Z,959.03
2022-11-27T11:02:48.954Z,959.05
2022-11-27T11:03:48.809Z,959.09
2022-11-27T11:05:09.171Z,959.05
2022-11-27T11:06:18.654Z,959.02
2022-11-27T11:06:49.760Z,959.01
2022-11-27T11:07:48.852Z,958.96
2022-11-27T11:08:48.804Z,959.03
2022-11-27T11:09:48.725Z,959.00
2022-11-27T11:10:48.745Z,959.02
2022-11-27T11:11:48.740Z,959.01
2022-11-27T11:12:48.706Z,959.02
2022-11-27T11:13:48.686Z,959.03
2022-11-27T11:14:48.817Z,959.02
2022-11-27T11:15:51.574Z,959.00
2022-11-27T11:16:48.766Z,959.01
2022-11-27T11:17:48.649Z,959.05
2022-11-27T11:18:48.634Z,959.06
2022-11-27T11:19:48.617Z,959.01
2022-11-27T11:20:48.650Z,959.08
2022-11-27T11:21:48.598Z,959.05
2022-11-27T11:22:48.584Z,959.01
2022-11-27T11:23:48.581Z,959.00
2022-11-27T11:24:48.565Z,959.03
2022-11-27T11:25:48.547Z,959.03
2022-11-27T11:26:48.563Z,959.01
2022-11-27T11:27:48.523Z,959.05
2022-11-27T11:28:48.535Z,959.00
2022-11-27T11:29:48.516Z,959.00
2022-11-27T11:30:48.639Z,959.02
2022-11-27T11:31:48.538Z,959.07
2022-11-27T11:32:48.474Z,959.02
2022-11-27T11:33:48.457Z,959.03
2022-11-27T11:34:48.448Z,959.00
2022-11-27T11:35:48.502Z,959.01
2022-11-27T11:36:48.427Z,959.03
2022-11-27T11:37:48.424Z,959.06
2022-11-27T11:38:48.520Z,959.04
2022-11-27T11:39:48.415Z,959.04
2022-11-27T11:40:48.648Z,958.97
2022-11-27T11:41:48.385Z,958.98
2022-11-27T11:42:48.353Z,958.92
2022-11-27T11:43:48.347Z,958.92
2022-11-27T11:44:48.330Z,958.91
2022-11-27T11:45:48.382Z,958.86
2022-11-27T11:46:48.423Z,958.90
2022-11-27T11:47:48.315Z,958.85
2022-11-27T11:48:48.311Z,958.84
2022-11-27T11:49:48.279Z,958.85
2022-11-27T11:50:48.282Z,958.84
2022-11-27T11:51:48.261Z,958.80
2022-11-27T11:52:48.259Z,958.81
2022-11-27T11:53:48.248Z,958.84
2022-11-27T11:54:48.237Z,958.84
2022-11-27T11:55:48.213Z,958.84
2022-11-27T11:56:48.195Z,958.77
2022-11-27T11:57:48.196Z,958.79
2022-11-27T11:58:48.198Z,958.76
2022-11-27T11:59:48.183Z,958.74
2022-11-27T12:01:11.873Z,958.75
2022-11-27T12:01:49.188Z,958.68
2022-11-27T12:02:48.354Z,958.67
2022-11-27T12:03:48.123Z,958.73
2022-11-27T12:04:48.158Z,958.68
2022-11-27T12:05:48.161Z,958.64
2022-11-27T12:06:48.091Z,958.66
2022-11-27T12:07:52.198Z,958.59
2022-11-27T12:08:48.137Z,958.56
2022-11-27T12:09:48.058Z,958.52
2022-11-27T12:10:48.042Z,958.58
2022-11-27T12:11:48.070Z,958.52
2022-11-27T12:12:48.017Z,958.46
2022-11-27T12:13:48.013Z,958.50
2022-11-27T12:14:48.032Z,958.50
2022-11-27T12:15:48.017Z,958.47
2022-11-27T12:16:48.029Z,958.48
2022-11-27T12:17:47.971Z,958.49
2022-11-27T12:18:48.076Z,958.45
2022-11-27T12:19:47.959Z,958.44
2022-11-27T12:20:47.952Z,958.42
2022-11-27T12:21:47.923Z,958.41
2022-11-27T12:22:47.909Z,958.34
2022-11-27T12:23:47.921Z,958.34
2022-11-27T12:24:47.894Z,958.34
2022-11-27T12:25:47.892Z,958.31
2022-11-27T12:26:47.869Z,958.33
2022-11-27T12:27:47.880Z,958.34
2022-11-27T12:28:47.858Z,958.29
2022-11-27T12:29:47.837Z,958.23